Time;durP1;ratioP1;P1;durP2;ratioP2;P2;SDS_P1;SDS_P2;PMS_P1;PMS_P2;Temp;Humidity;BMP_temperature;BMP_pressure;BME280_temperature;BME280_humidity;BME280_pressure;Samples;Min_cycle;Max_cycle;Signal;HPM_P1;HPM_P2
2022/04/10 16:46:33;;;;;;;;;;;7.70;99.90;;;;;;5109406;27;19920;-92
2022/04/10 16:49:00;;;;;;;;;;;7.40;99.90;;;;;;5115027;28;19912;-92
2022/04/10 16:51:29;;;;;;;;;;;7.50;99.90;;;;;;5110653;28;19908;-92
2022/04/10 16:53:55;;;;;;;;;;;7.50;99.90;;;;;;5110998;28;19954;-94
2022/04/10 16:56:22;;;;;;;;;;;7.60;99.90;;;;;;5111582;28;19962;-93
2022/04/10 16:58:49;;;;;;;;;;;7.70;99.90;;;;;;5111362;28;19908;-93
2022/04/10 17:01:14;;;;;;;;;;;7.70;99.90;;;;;;5112222;28;19931;-93
2022/04/10 17:03:40;;;;;;;;;;;7.80;99.90;;;;;;5109053;28;20356;-93
2022/04/10 17:06:07;;;;;;;;;;;7.90;99.90;;;;;;5111203;28;19920;-94
2022/04/10 17:08:32;;;;;;;;;;;7.90;99.90;;;;;;5107344;28;19961;-92
2022/04/10 17:10:58;;;;;;;;;;;8.00;99.90;;;;;;5112028;28;19912;-95
2022/04/10 17:13:24;;;;;;;;;;;8.00;99.90;;;;;;5111061;28;20284;-92
2022/04/10 17:15:49;;;;;;;;;;;8.10;99.90;;;;;;5115841;28;19915;-93
2022/04/10 17:18:16;;;;;;;;;;;8.10;99.90;;;;;;5110168;28;20350;-92
2022/04/10 17:20:42;;;;;;;;;;;8.10;99.90;;;;;;5110349;28;19995;-93
2022/04/10 17:23:09;;;;;;;;;;;8.10;99.90;;;;;;5110067;28;19948;-92
2022/04/10 17:25:36;;;;;;;;;;;8.20;99.90;;;;;;5109965;28;20720;-92
2022/04/10 17:28:01;;;;;;;;;;;8.10;99.90;;;;;;5111858;28;19947;-91
2022/04/10 17:30:27;;;;;;;;;;;8.20;99.90;;;;;;5107274;28;19919;-90
2022/04/10 17:33:08;;;;;;;;;;;8.20;99.90;;;;;;5108420;28;19908;-92
2022/04/10 17:35:34;;;;;;;;;;;8.20;99.90;;;;;;5110091;28;19912;-93
2022/04/10 17:38:00;;;;;;;;;;;8.20;99.90;;;;;;5111079;28;19939;-95
2022/04/10 18:15:12;;;;;;;;;;;7.20;99.90;;;;;;5154874;27;19907;-94
2022/04/10 18:17:38;;;;;;;;;;;7.10;99.90;;;;;;5139784;27;19915;-91
2022/04/10 18:20:04;;;;;;;;;;;7.10;99.90;;;;;;5115271;27;19914;-93
2022/04/10 20:18:45;;;;;;;;;;;5.80;99.90;;;;;;5112334;27;19922;-93
2022/04/10 20:21:10;;;;;;;;;;;5.80;99.90;;;;;;5111329;28;19998;-92
2022/04/10 20:23:36;;;;;;;;;;;5.80;99.90;;;;;;5110230;28;19957;-92
2022/04/10 20:26:01;;;;;;;;;;;5.90;99.90;;;;;;5156843;27;19995;-94
2022/04/10 20:28:27;;;;;;;;;;;6.00;99.90;;;;;;5115273;28;20006;-92
2022/04/10 20:30:53;;;;;;;;;;;6.00;99.90;;;;;;5111755;28;19915;-94
2022/04/10 20:33:19;;;;;;;;;;;6.10;99.90;;;;;;5111305;28;20015;-92
2022/04/10 20:35:45;;;;;;;;;;;6.10;99.90;;;;;;5112403;28;19948;-94
2022/04/10 20:38:10;;;;;;;;;;;6.20;99.90;;;;;;5110914;28;19956;-94
2022/04/10 20:40:36;;;;;;;;;;;6.20;99.90;;;;;;5111533;28;19978;-91
2022/04/10 20:43:02;;;;;;;;;;;6.20;99.90;;;;;;5114472;28;20249;-92
2022/04/10 20:45:27;;;;;;;;;;;6.20;99.90;;;;;;5134548;28;19907;-92
2022/04/10 20:47:56;;;;;;;;;;;6.30;99.90;;;;;;5115210;28;20353;-92
2022/04/10 20:50:21;;;;;;;;;;;6.30;99.90;;;;;;5112728;28;19916;-92
2022/04/10 20:52:47;;;;;;;;;;;6.30;99.90;;;;;;5109187;28;20440;-92
